sensor_id;sensor_type;location;lat;lon;timestamp;temperature;humidity
7461;DHT22;6757;52.258;12.840;2024-02-14T00:01:07;0.40;99.90
7461;DHT22;6757;52.258;12.840;2024-02-14T00:03:35;0.40;99.90
7461;DHT22;6757;52.258;12.840;2024-02-14T00:06:03;0.40;99.90
7461;DHT22;6757;52.258;12.840;2024-02-14T00:08:31;0.40;99.90
7461;DHT22;6757;52.258;12.840;2024-02-14T00:10:59;0.40;99.90
7461;DHT22;6757;52.258;12.840;2024-02-14T00:13:27;0.40;99.90
7461;DHT22;6757;52.258;12.840;2024-02-14T00:15:55;0.70;99.90
7461;DHT22;6757;52.258;12.840;2024-02-14T00:18:24;0.40;99.90
7461;DHT22;6757;52.258;12.840;2024-02-14T00:20:51;0.40;99.90
7461;DHT22;6757;52.258;12.840;2024-02-14T00:23:18;0.40;99.90
7461;DHT22;6757;52.258;12.840;2024-02-14T00:25:46;0.40;99.90
7461;DHT22;6757;52.258;12.840;2024-02-14T00:28:13;0.30;99.90
7461;DHT22;6757;52.258;12.840;2024-02-14T00:30:40;0.40;99.90
7461;DHT22;6757;52.258;12.840;2024-02-14T00:33:07;0.30;99.90
7461;DHT22;6757;52.258;12.840;2024-02-14T00:35:36;0.30;99.90
7461;DHT22;6757;52.258;12.840;2024-02-14T00:38:03;0.30;99.90
7461;DHT22;6757;52.258;12.840;2024-02-14T00:40:31;0.30;99.90
7461;DHT22;6757;52.258;12.840;2024-02-14T00:42:58;0.30;99.90
7461;DHT22;6757;52.258;12.840;2024-02-14T00:45:26;0.40;99.90
7461;DHT22;6757;52.258;12.840;2024-02-14T00:47:54;0.40;99.90
7461;DHT22;6757;52.258;12.840;2024-02-14T00:50:21;0.30;99.90
7461;DHT22;6757;52.258;12.840;2024-02-14T00:52:50;0.30;99.90
7461;DHT22;6757;52.258;12.840;2024-02-14T00:55:17;1.20;99.90
7461;DHT22;6757;52.258;12.840;2024-02-14T00:57:45;0.30;99.90
7461;DHT22;6757;52.258;12.840;2024-02-14T01:00:13;0.40;99.90
7461;DHT22;6757;52.258;12.840;2024-02-14T01:02:42;0.40;99.90
7461;DHT22;6757;52.258;12.840;2024-02-14T01:05:09;0.40;99.90
7461;DHT22;6757;52.258;12.840;2024-02-14T01:07:36;0.80;99.90
7461;DHT22;6757;52.258;12.840;2024-02-14T01:10:06;0.40;99.90
7461;DHT22;6757;52.258;12.840;2024-02-14T01:12:34;0.40;99.90
7461;DHT22;6757;52.258;12.840;2024-02-14T01:15:02;0.40;99.90
7461;DHT22;6757;52.258;12.840;2024-02-14T01:17:31;0.40;99.90
7461;DHT22;6757;52.258;12.840;2024-02-14T01:19:58;0.50;99.90
7461;DHT22;6757;52.258;12.840;2024-02-14T01:22:25;0.50;99.90
7461;DHT22;6757;52.258;12.840;2024-02-14T01:24:53;0.50;99.90
7461;DHT22;6757;52.258;12.840;2024-02-14T01:27:23;0.50;99.90
7461;DHT22;6757;52.258;12.840;2024-02-14T01:29:50;0.50;99.90
7461;DHT22;6757;52.258;12.840;2024-02-14T01:32:16;0.50;99.90
7461;DHT22;6757;52.258;12.840;2024-02-14T01:34:43;0.50;99.90
7461;DHT22;6757;52.258;12.840;2024-02-14T01:37:11;0.50;99.90
7461;DHT22;6757;52.258;12.840;2024-02-14T01:39:38;0.60;99.90
7461;DHT22;6757;52.258;12.840;2024-02-14T01:42:06;0.60;99.90
7461;DHT22;6757;52.258;12.840;2024-02-14T01:44:35;1.00;99.90
7461;DHT22;6757;52.258;12.840;2024-02-14T01:47:02;0.60;99.90
7461;DHT22;6757;52.258;12.840;2024-02-14T01:49:31;0.60;99.90
7461;DHT22;6757;52.258;12.840;2024-02-14T01:52:02;0.70;99.90
7461;DHT22;6757;52.258;12.840;2024-02-14T01:54:30;0.70;99.90
7461;DHT22;6757;52.258;12.840;2024-02-14T01:56:59;0.70;99.90
7461;DHT22;6757;52.258;12.840;2024-02-14T01:59:27;0.70;99.90
7461;DHT22;6757;52.258;12.840;2024-02-14T02:01:57;1.00;99.90
7461;DHT22;6757;52.258;12.840;2024-02-14T02:04:24;0.80;99.90
7461;DHT22;6757;52.258;12.840;2024-02-14T02:06:52;1.20;99.90
7461;DHT22;6757;52.258;12.840;2024-02-14T02:09:21;0.80;99.90
7461;DHT22;6757;52.258;12.840;2024-02-14T02:11:50;1.10;99.90
7461;DHT22;6757;52.258;12.840;2024-02-14T02:14:19;0.90;99.90
7461;DHT22;6757;52.258;12.840;2024-02-14T02:16:48;0.90;99.90
7461;DHT22;6757;52.258;12.840;2024-02-14T02:19:19;0.90;99.90
7461;DHT22;6757;52.258;12.840;2024-02-14T02:21:47;0.90;99.90
7461;DHT22;6757;52.258;12.840;2024-02-14T02:24:16;1.00;99.90
7461;DHT22;6757;52.258;12.840;2024-02-14T02:26:43;1.00;99.90
7461;DHT22;6757;52.258;12.840;2024-02-14T02:29:12;2.20;99.90
7461;DHT22;6757;52.258;12.840;2024-02-14T02:31:40;1.00;99.90
7461;DHT22;6757;52.258;12.840;2024-02-14T02:34:08;1.00;99.90
7461;DHT22;6757;52.258;12.840;2024-02-14T02:36:36;1.00;99.90
7461;DHT22;6757;52.258;12.840;2024-02-14T02:39:03;0.80;99.90
7461;DHT22;6757;52.258;12.840;2024-02-14T02:41:32;1.10;99.90
7461;DHT22;6757;52.258;12.840;2024-02-14T02:43:59;1.10;99.90
7461;DHT22;6757;52.258;12.840;2024-02-14T02:46:27;2.30;99.90
7461;DHT22;6757;52.258;12.840;2024-02-14T02:48:55;1.10;99.90
7461;DHT22;6757;52.258;12.840;2024-02-14T02:51:22;1.10;99.90
7461;DHT22;6757;52.258;12.840;2024-02-14T02:53:49;1.10;99.90
7461;DHT22;6757;52.258;12.840;2024-02-14T02:56:17;1.10;99.90
7461;DHT22;6757;52.258;12.840;2024-02-14T02:58:48;1.10;99.90
7461;DHT22;6757;52.258;12.840;2024-02-14T03:01:16;2.10;99.90
7461;DHT22;6757;52.258;12.840;2024-02-14T03:03:43;2.00;99.90
7461;DHT22;6757;52.258;12.840;2024-02-14T03:06:10;1.10;99.90
7461;DHT22;6757;52.258;12.840;2024-02-14T03:08:37;1.10;99.90
7461;DHT22;6757;52.258;12.840;2024-02-14T03:11:05;1.70;99.90
7461;DHT22;6757;52.258;12.840;2024-02-14T03:13:33;1.10;99.90
7461;DHT22;6757;52.258;12.840;2024-02-14T03:16:02;1.10;99.90
7461;DHT22;6757;52.258;12.840;2024-02-14T03:18:30;1.10;99.90
7461;DHT22;6757;52.258;12.840;2024-02-14T03:20:58;1.10;99.90
7461;DHT22;6757;52.258;12.840;2024-02-14T03:23:26;1.40;99.90
7461;DHT22;6757;52.258;12.840;2024-02-14T03:25:53;1.10;99.90
7461;DHT22;6757;52.258;12.840;2024-02-14T03:28:20;1.40;99.90
7461;DHT22;6757;52.258;12.840;2024-02-14T03:30:47;1.20;99.90
7461;DHT22;6757;52.258;12.840;2024-02-14T03:33:16;1.60;99.90
7461;DHT22;6757;52.258;12.840;2024-02-14T03:35:43;1.30;99.90
7461;DHT22;6757;52.258;12.840;2024-02-14T03:38:11;1.30;99.90
7461;DHT22;6757;52.258;12.840;2024-02-14T03:40:40;1.30;99.90
7461;DHT22;6757;52.258;12.840;2024-02-14T03:43:07;3.00;99.90
7461;DHT22;6757;52.258;12.840;2024-02-14T03:45:37;2.50;99.90
7461;DHT22;6757;52.258;12.840;2024-02-14T03:48:05;2.30;99.90
7461;DHT22;6757;52.258;12.840;2024-02-14T03:50:34;1.50;99.90
7461;DHT22;6757;52.258;12.840;2024-02-14T03:53:01;1.10;99.90
7461;DHT22;6757;52.258;12.840;2024-02-14T03:55:28;2.60;99.90
7461;DHT22;6757;52.258;12.840;2024-02-14T03:57:56;1.80;99.90
7461;DHT22;6757;52.258;12.840;2024-02-14T04:00:23;1.90;99.90
7461;DHT22;6757;52.258;12.840;2024-02-14T04:02:51;1.50;99.90
7461;DHT22;6757;52.258;12.840;2024-02-14T04:05:24;1.50;99.90
7461;DHT22;6757;52.258;12.840;2024-02-14T04:07:54;1.60;99.90
7461;DHT22;6757;52.258;12.840;2024-02-14T04:10:21;1.50;99.90
7461;DHT22;6757;52.258;12.840;2024-02-14T04:12:49;1.40;99.90
7461;DHT22;6757;52.258;12.840;2024-02-14T04:15:16;1.60;99.90
7461;DHT22;6757;52.258;12.840;2024-02-14T04:17:43;2.50;99.90
7461;DHT22;6757;52.258;12.840;2024-02-14T04:20:11;1.70;99.90
7461;DHT22;6757;52.258;12.840;2024-02-14T04:22:38;1.60;99.90
7461;DHT22;6757;52.258;12.840;2024-02-14T04:25:07;1.60;99.90
7461;DHT22;6757;52.258;12.840;2024-02-14T04:27:35;1.60;99.90
7461;DHT22;6757;52.258;12.840;2024-02-14T04:30:02;2.10;99.90
7461;DHT22;6757;52.258;12.840;2024-02-14T04:32:31;1.60;99.90
7461;DHT22;6757;52.258;12.840;2024-02-14T04:34:58;1.60;99.90
7461;DHT22;6757;52.258;12.840;2024-02-14T04:37:26;1.60;99.90
7461;DHT22;6757;52.258;12.840;2024-02-14T04:39:54;1.80;99.90
7461;DHT22;6757;52.258;12.840;2024-02-14T04:42:23;1.60;99.90
7461;DHT22;6757;52.258;12.840;2024-02-14T04:44:50;1.60;99.90
7461;DHT22;6757;52.258;12.840;2024-02-14T04:47:17;1.60;99.90
7461;DHT22;6757;52.258;12.840;2024-02-14T04:49:46;1.50;99.90
7461;DHT22;6757;52.258;12.840;2024-02-14T04:52:13;1.50;99.90
7461;DHT22;6757;52.258;12.840;2024-02-14T04:54:41;2.90;99.90
7461;DHT22;6757;52.258;12.840;2024-02-14T04:57:08;1.50;99.90
7461;DHT22;6757;52.258;12.840;2024-02-14T04:59:38;1.30;99.90
7461;DHT22;6757;52.258;12.840;2024-02-14T05:02:04;1.90;99.90
7461;DHT22;6757;52.258;12.840;2024-02-14T05:04:32;2.40;99.90
7461;DHT22;6757;52.258;12.840;2024-02-14T05:07:00;1.50;99.90
7461;DHT22;6757;52.258;12.840;2024-02-14T05:09:27;1.30;99.90
7461;DHT22;6757;52.258;12.840;2024-02-14T05:11:55;2.00;99.90
7461;DHT22;6757;52.258;12.840;2024-02-14T05:14:22;1.30;99.90
7461;DHT22;6757;52.258;12.840;2024-02-14T05:16:50;1.20;99.90
7461;DHT22;6757;52.258;12.840;2024-02-14T05:19:17;1.20;99.90
7461;DHT22;6757;52.258;12.840;2024-02-14T05:21:47;1.20;99.90
7461;DHT22;6757;52.258;12.840;2024-02-14T05:24:14;1.20;99.90
7461;DHT22;6757;52.258;12.840;2024-02-14T05:26:41;1.20;99.90
7461;DHT22;6757;52.258;12.840;2024-02-14T05:29:08;1.60;99.90
7461;DHT22;6757;52.258;12.840;2024-02-14T05:31:43;1.60;99.90
7461;DHT22;6757;52.258;12.840;2024-02-14T05:34:12;1.20;99.90
7461;DHT22;6757;52.258;12.840;2024-02-14T05:36:40;1.30;99.90
7461;DHT22;6757;52.258;12.840;2024-02-14T05:39:10;1.60;99.90
7461;DHT22;6757;52.258;12.840;2024-02-14T05:41:39;1.30;99.90
7461;DHT22;6757;52.258;12.840;2024-02-14T05:44:06;1.30;99.90
7461;DHT22;6757;52.258;12.840;2024-02-14T05:46:34;1.30;99.90
7461;DHT22;6757;52.258;12.840;2024-02-14T05:49:01;1.60;99.90
7461;DHT22;6757;52.258;12.840;2024-02-14T05:51:31;1.40;99.90
7461;DHT22;6757;52.258;12.840;2024-02-14T05:54:00;1.40;99.90
7461;DHT22;6757;52.258;12.840;2024-02-14T05:56:28;1.50;99.90
7461;DHT22;6757;52.258;12.840;2024-02-14T05:58:55;0.30;99.90
7461;DHT22;6757;52.258;12.840;2024-02-14T06:01:22;1.40;99.90
7461;DHT22;6757;52.258;12.840;2024-02-14T06:03:49;1.60;99.90
7461;DHT22;6757;52.258;12.840;2024-02-14T06:06:17;1.60;99.90
7461;DHT22;6757;52.258;12.840;2024-02-14T06:08:45;2.00;99.90
7461;DHT22;6757;52.258;12.840;2024-02-14T06:11:13;1.70;99.90
7461;DHT22;6757;52.258;12.840;2024-02-14T06:13:41;1.90;99.90
7461;DHT22;6757;52.258;12.840;2024-02-14T06:16:08;1.70;99.90
7461;DHT22;6757;52.258;12.840;2024-02-14T06:18:36;1.90;99.90
7461;DHT22;6757;52.258;12.840;2024-02-14T06:21:04;2.00;99.90
7461;DHT22;6757;52.258;12.840;2024-02-14T06:23:32;2.00;99.90
7461;DHT22;6757;52.258;12.840;2024-02-14T06:26:07;2.10;99.90
7461;DHT22;6757;52.258;12.840;2024-02-14T06:28:34;2.20;99.90
7461;DHT22;6757;52.258;12.840;2024-02-14T06:31:01;2.20;99.90
7461;DHT22;6757;52.258;12.840;2024-02-14T06:33:28;2.30;99.90
7461;DHT22;6757;52.258;12.840;2024-02-14T06:35:55;2.30;99.90
7461;DHT22;6757;52.258;12.840;2024-02-14T06:38:22;2.40;99.90
7461;DHT22;6757;52.258;12.840;2024-02-14T06:40:49;2.40;99.90
7461;DHT22;6757;52.258;12.840;2024-02-14T06:43:19;2.50;99.90
7461;DHT22;6757;52.258;12.840;2024-02-14T06:45:46;2.50;99.90
7461;DHT22;6757;52.258;12.840;2024-02-14T06:48:13;2.50;99.90
7461;DHT22;6757;52.258;12.840;2024-02-14T06:50:41;2.60;99.90
7461;DHT22;6757;52.258;12.840;2024-02-14T06:53:08;2.60;99.90
7461;DHT22;6757;52.258;12.840;2024-02-14T06:55:35;2.60;99.90
7461;DHT22;6757;52.258;12.840;2024-02-14T06:58:03;2.60;99.90
7461;DHT22;6757;52.258;12.840;2024-02-14T07:00:33;2.70;99.90
7461;DHT22;6757;52.258;12.840;2024-02-14T07:03:00;2.70;99.90
7461;DHT22;6757;52.258;12.840;2024-02-14T07:05:27;2.70;99.90
7461;DHT22;6757;52.258;12.840;2024-02-14T07:07:54;2.70;99.90
7461;DHT22;6757;52.258;12.840;2024-02-14T07:10:22;2.80;99.90
7461;DHT22;6757;52.258;12.840;2024-02-14T07:12:49;2.80;99.90
7461;DHT22;6757;52.258;12.840;2024-02-14T07:15:17;2.90;99.90
7461;DHT22;6757;52.258;12.840;2024-02-14T07:17:46;3.00;99.90
7461;DHT22;6757;52.258;12.840;2024-02-14T07:20:13;4.20;99.90
7461;DHT22;6757;52.258;12.840;2024-02-14T07:22:43;3.00;99.90
7461;DHT22;6757;52.258;12.840;2024-02-14T07:25:13;3.00;99.90
7461;DHT22;6757;52.258;12.840;2024-02-14T07:27:40;3.10;99.90
7461;DHT22;6757;52.258;12.840;2024-02-14T07:30:08;3.20;99.90
7461;DHT22;6757;52.258;12.840;2024-02-14T07:32:39;3.20;99.90
7461;DHT22;6757;52.258;12.840;2024-02-14T07:35:09;3.30;99.90
7461;DHT22;6757;52.258;12.840;2024-02-14T07:37:38;3.40;99.90
7461;DHT22;6757;52.258;12.840;2024-02-14T07:40:06;3.30;99.90
7461;DHT22;6757;52.258;12.840;2024-02-14T07:42:34;3.40;99.90
7461;DHT22;6757;52.258;12.840;2024-02-14T07:45:01;3.50;99.90
7461;DHT22;6757;52.258;12.840;2024-02-14T07:47:29;3.50;99.90
7461;DHT22;6757;52.258;12.840;2024-02-14T07:49:56;3.50;99.90
7461;DHT22;6757;52.258;12.840;2024-02-14T07:52:25;3.60;99.90
7461;DHT22;6757;52.258;12.840;2024-02-14T07:54:54;4.10;99.90
7461;DHT22;6757;52.258;12.840;2024-02-14T07:57:23;3.60;99.90
7461;DHT22;6757;52.258;12.840;2024-02-14T07:59:50;3.60;99.90
7461;DHT22;6757;52.258;12.840;2024-02-14T08:02:18;3.70;99.90
7461;DHT22;6757;52.258;12.840;2024-02-14T08:04:46;3.70;99.90
7461;DHT22;6757;52.258;12.840;2024-02-14T08:07:13;3.70;99.90
7461;DHT22;6757;52.258;12.840;2024-02-14T08:09:41;3.70;99.90
7461;DHT22;6757;52.258;12.840;2024-02-14T08:12:08;3.70;99.90
7461;DHT22;6757;52.258;12.840;2024-02-14T08:14:35;3.80;99.90
7461;DHT22;6757;52.258;12.840;2024-02-14T08:17:03;3.80;99.90
7461;DHT22;6757;52.258;12.840;2024-02-14T08:19:30;3.80;99.90
7461;DHT22;6757;52.258;12.840;2024-02-14T08:21:57;3.90;99.90
7461;DHT22;6757;52.258;12.840;2024-02-14T08:24:25;3.90;99.90
7461;DHT22;6757;52.258;12.840;2024-02-14T08:26:54;4.00;99.90
7461;DHT22;6757;52.258;12.840;2024-02-14T08:29:21;4.00;99.90
7461;DHT22;6757;52.258;12.840;2024-02-14T08:31:49;4.10;99.90
7461;DHT22;6757;52.258;12.840;2024-02-14T08:34:17;4.10;99.90
7461;DHT22;6757;52.258;12.840;2024-02-14T08:36:44;4.00;99.90
7461;DHT22;6757;52.258;12.840;2024-02-14T08:39:11;4.20;99.90
7461;DHT22;6757;52.258;12.840;2024-02-14T08:41:38;4.30;99.90
7461;DHT22;6757;52.258;12.840;2024-02-14T08:44:10;4.40;99.90
7461;DHT22;6757;52.258;12.840;2024-02-14T08:46:37;4.40;99.90
7461;DHT22;6757;52.258;12.840;2024-02-14T08:49:04;4.30;99.90
7461;DHT22;6757;52.258;12.840;2024-02-14T08:51:34;4.50;99.90
7461;DHT22;6757;52.258;12.840;2024-02-14T08:54:02;4.60;99.90
7461;DHT22;6757;52.258;12.840;2024-02-14T08:56:30;4.60;99.90
7461;DHT22;6757;52.258;12.840;2024-02-14T08:58:59;4.60;99.90
7461;DHT22;6757;52.258;12.840;2024-02-14T09:01:29;4.80;99.90
7461;DHT22;6757;52.258;12.840;2024-02-14T09:03:55;4.70;99.90
7461;DHT22;6757;52.258;12.840;2024-02-14T09:06:24;4.80;99.90
7461;DHT22;6757;52.258;12.840;2024-02-14T09:08:52;4.90;99.90
7461;DHT22;6757;52.258;12.840;2024-02-14T09:11:20;4.90;99.90
7461;DHT22;6757;52.258;12.840;2024-02-14T09:13:48;4.90;99.90
7461;DHT22;6757;52.258;12.840;2024-02-14T09:16:19;5.20;99.90
7461;DHT22;6757;52.258;12.840;2024-02-14T09:18:49;5.00;99.90
7461;DHT22;6757;52.258;12.840;2024-02-14T09:21:16;5.10;99.90
7461;DHT22;6757;52.258;12.840;2024-02-14T09:23:46;5.10;99.90
7461;DHT22;6757;52.258;12.840;2024-02-14T09:26:14;5.20;99.90
7461;DHT22;6757;52.258;12.840;2024-02-14T09:28:42;5.00;99.90
7461;DHT22;6757;52.258;12.840;2024-02-14T09:31:11;5.20;99.90
7461;DHT22;6757;52.258;12.840;2024-02-14T09:33:38;5.30;99.90
7461;DHT22;6757;52.258;12.840;2024-02-14T09:36:10;5.40;99.90
7461;DHT22;6757;52.258;12.840;2024-02-14T09:38:37;5.50;99.90
7461;DHT22;6757;52.258;12.840;2024-02-14T09:41:09;5.50;99.90
7461;DHT22;6757;52.258;12.840;2024-02-14T09:43:39;5.40;99.90
7461;DHT22;6757;52.258;12.840;2024-02-14T09:46:12;5.70;99.90
7461;DHT22;6757;52.258;12.840;2024-02-14T09:48:40;5.70;99.90
7461;DHT22;6757;52.258;12.840;2024-02-14T09:51:11;5.80;99.90
7461;DHT22;6757;52.258;12.840;2024-02-14T09:53:39;5.80;99.90
7461;DHT22;6757;52.258;12.840;2024-02-14T09:56:09;5.80;99.90
7461;DHT22;6757;52.258;12.840;2024-02-14T09:58:40;5.90;99.90
7461;DHT22;6757;52.258;12.840;2024-02-14T10:01:07;5.90;99.90
7461;DHT22;6757;52.258;12.840;2024-02-14T10:03:35;5.80;99.90
7461;DHT22;6757;52.258;12.840;2024-02-14T10:06:02;6.00;99.90
7461;DHT22;6757;52.258;12.840;2024-02-14T10:08:32;6.00;99.90
7461;DHT22;6757;52.258;12.840;2024-02-14T10:10:59;6.10;99.90
7461;DHT22;6757;52.258;12.840;2024-02-14T10:13:29;6.10;99.90
7461;DHT22;6757;52.258;12.840;2024-02-14T10:15:57;6.20;99.90
7461;DHT22;6757;52.258;12.840;2024-02-14T10:18:25;6.20;99.90
7461;DHT22;6757;52.258;12.840;2024-02-14T10:20:54;6.30;99.90
7461;DHT22;6757;52.258;12.840;2024-02-14T10:23:21;6.30;99.90
7461;DHT22;6757;52.258;12.840;2024-02-14T10:25:52;6.30;99.90
7461;DHT22;6757;52.258;12.840;2024-02-14T10:28:21;6.40;99.90
7461;DHT22;6757;52.258;12.840;2024-02-14T10:30:49;6.40;99.90
7461;DHT22;6757;52.258;12.840;2024-02-14T10:33:22;6.80;99.90
7461;DHT22;6757;52.258;12.840;2024-02-14T10:35:52;6.40;99.90
7461;DHT22;6757;52.258;12.840;2024-02-14T10:38:21;6.50;99.90
7461;DHT22;6757;52.258;12.840;2024-02-14T10:40:51;6.50;99.90
7461;DHT22;6757;52.258;12.840;2024-02-14T10:43:18;6.70;99.90
7461;DHT22;6757;52.258;12.840;2024-02-14T10:45:46;6.60;99.90
7461;DHT22;6757;52.258;12.840;2024-02-14T10:48:14;6.70;99.90
7461;DHT22;6757;52.258;12.840;2024-02-14T10:50:44;6.70;99.90
7461;DHT22;6757;52.258;12.840;2024-02-14T10:53:14;6.70;99.90
7461;DHT22;6757;52.258;12.840;2024-02-14T10:55:44;6.80;99.90
7461;DHT22;6757;52.258;12.840;2024-02-14T10:58:17;6.80;99.90
7461;DHT22;6757;52.258;12.840;2024-02-14T11:00:45;6.80;99.90
7461;DHT22;6757;52.258;12.840;2024-02-14T11:03:13;6.80;99.90
7461;DHT22;6757;52.258;12.840;2024-02-14T11:05:45;6.90;99.90
7461;DHT22;6757;52.258;12.840;2024-02-14T11:08:14;6.90;99.90
7461;DHT22;6757;52.258;12.840;2024-02-14T11:10:42;6.80;99.90
7461;DHT22;6757;52.258;12.840;2024-02-14T11:13:12;6.90;99.90
7461;DHT22;6757;52.258;12.840;2024-02-14T11:15:44;6.90;99.90
7461;DHT22;6757;52.258;12.840;2024-02-14T11:18:12;6.90;99.90
7461;DHT22;6757;52.258;12.840;2024-02-14T11:20:39;6.90;99.90
7461;DHT22;6757;52.258;12.840;2024-02-14T11:23:07;6.80;99.90
7461;DHT22;6757;52.258;12.840;2024-02-14T11:25:37;6.90;99.90
7461;DHT22;6757;52.258;12.840;2024-02-14T11:28:13;6.90;99.90
7461;DHT22;6757;52.258;12.840;2024-02-14T11:30:43;6.90;99.90
7461;DHT22;6757;52.258;12.840;2024-02-14T11:33:16;6.90;99.90
7461;DHT22;6757;52.258;12.840;2024-02-14T11:35:46;6.90;99.90
7461;DHT22;6757;52.258;12.840;2024-02-14T11:38:14;6.90;99.90
7461;DHT22;6757;52.258;12.840;2024-02-14T11:40:42;7.00;99.90
7461;DHT22;6757;52.258;12.840;2024-02-14T11:43:12;7.00;99.90
7461;DHT22;6757;52.258;12.840;2024-02-14T11:45:42;7.00;99.90
7461;DHT22;6757;52.258;12.840;2024-02-14T11:48:12;7.00;99.90
7461;DHT22;6757;52.258;12.840;2024-02-14T11:50:40;7.10;99.90
7461;DHT22;6757;52.258;12.840;2024-02-14T11:53:09;7.10;99.90
7461;DHT22;6757;52.258;12.840;2024-02-14T11:55:37;7.10;99.90
7461;DHT22;6757;52.258;12.840;2024-02-14T11:58:06;7.20;99.90
7461;DHT22;6757;52.258;12.840;2024-02-14T12:00:37;7.20;99.90
7461;DHT22;6757;52.258;12.840;2024-02-14T12:03:09;7.20;99.90
7461;DHT22;6757;52.258;12.840;2024-02-14T12:05:38;7.20;99.90
7461;DHT22;6757;52.258;12.840;2024-02-14T12:08:07;7.30;99.90
7461;DHT22;6757;52.258;12.840;2024-02-14T12:10:35;7.40;99.90
7461;DHT22;6757;52.258;12.840;2024-02-14T12:13:07;7.40;99.90
7461;DHT22;6757;52.258;12.840;2024-02-14T12:15:38;7.40;99.90
7461;DHT22;6757;52.258;12.840;2024-02-14T12:18:08;7.50;99.90
7461;DHT22;6757;52.258;12.840;2024-02-14T12:20:36;7.50;99.90
7461;DHT22;6757;52.258;12.840;2024-02-14T12:23:04;7.60;99.90
7461;DHT22;6757;52.258;12.840;2024-02-14T12:25:33;7.60;99.90
7461;DHT22;6757;52.258;12.840;2024-02-14T12:28:00;7.60;99.90
7461;DHT22;6757;52.258;12.840;2024-02-14T12:30:43;7.70;99.90
7461;DHT22;6757;52.258;12.840;2024-02-14T12:33:13;7.70;99.90
7461;DHT22;6757;52.258;12.840;2024-02-14T12:35:42;7.70;99.90
7461;DHT22;6757;52.258;12.840;2024-02-14T12:38:12;7.80;99.90
7461;DHT22;6757;52.258;12.840;2024-02-14T12:40:40;7.70;99.90
7461;DHT22;6757;52.258;12.840;2024-02-14T12:43:10;7.80;99.90
7461;DHT22;6757;52.258;12.840;2024-02-14T12:45:38;7.80;99.90
7461;DHT22;6757;52.258;12.840;2024-02-14T12:48:07;7.80;99.90
7461;DHT22;6757;52.258;12.840;2024-02-14T12:50:38;7.80;99.90
7461;DHT22;6757;52.258;12.840;2024-02-14T12:53:10;7.80;99.90
7461;DHT22;6757;52.258;12.840;2024-02-14T12:55:37;7.80;99.90
7461;DHT22;6757;52.258;12.840;2024-02-14T12:58:04;7.80;99.90
7461;DHT22;6757;52.258;12.840;2024-02-14T13:00:31;7.80;99.90
7461;DHT22;6757;52.258;12.840;2024-02-14T13:02:59;7.90;99.90
7461;DHT22;6757;52.258;12.840;2024-02-14T13:05:27;7.80;99.90
7461;DHT22;6757;52.258;12.840;2024-02-14T13:07:55;7.90;99.90
7461;DHT22;6757;52.258;12.840;2024-02-14T13:10:23;8.10;99.90
7461;DHT22;6757;52.258;12.840;2024-02-14T13:12:50;8.10;99.90
7461;DHT22;6757;52.258;12.840;2024-02-14T13:15:17;8.00;99.90
7461;DHT22;6757;52.258;12.840;2024-02-14T13:17:45;8.00;99.90
7461;DHT22;6757;52.258;12.840;2024-02-14T13:20:13;8.10;99.90
7461;DHT22;6757;52.258;12.840;2024-02-14T13:22:41;8.10;99.90
7461;DHT22;6757;52.258;12.840;2024-02-14T13:25:10;8.10;99.90
7461;DHT22;6757;52.258;12.840;2024-02-14T13:27:37;8.20;99.90
7461;DHT22;6757;52.258;12.840;2024-02-14T13:30:04;8.10;99.90
7461;DHT22;6757;52.258;12.840;2024-02-14T13:32:33;8.30;99.90
7461;DHT22;6757;52.258;12.840;2024-02-14T13:35:02;8.30;99.90
7461;DHT22;6757;52.258;12.840;2024-02-14T13:37:31;8.30;99.90
7461;DHT22;6757;52.258;12.840;2024-02-14T13:39:58;8.30;99.90
7461;DHT22;6757;52.258;12.840;2024-02-14T13:42:37;8.30;99.90
7461;DHT22;6757;52.258;12.840;2024-02-14T13:45:05;8.40;99.90
7461;DHT22;6757;52.258;12.840;2024-02-14T13:47:35;8.40;99.90
7461;DHT22;6757;52.258;12.840;2024-02-14T13:50:04;8.40;99.90
7461;DHT22;6757;52.258;12.840;2024-02-14T13:52:33;8.40;99.90
7461;DHT22;6757;52.258;12.840;2024-02-14T13:55:01;8.50;99.90
7461;DHT22;6757;52.258;12.840;2024-02-14T13:57:30;8.50;99.90
7461;DHT22;6757;52.258;12.840;2024-02-14T13:59:59;8.50;99.90
7461;DHT22;6757;52.258;12.840;2024-02-14T14:02:27;8.60;99.90
7461;DHT22;6757;52.258;12.840;2024-02-14T14:04:54;8.60;99.90
7461;DHT22;6757;52.258;12.840;2024-02-14T14:07:21;8.60;99.90
7461;DHT22;6757;52.258;12.840;2024-02-14T14:09:49;8.60;99.90
7461;DHT22;6757;52.258;12.840;2024-02-14T14:12:16;8.60;99.90
7461;DHT22;6757;52.258;12.840;2024-02-14T14:14:44;8.70;99.90
7461;DHT22;6757;52.258;12.840;2024-02-14T14:17:13;8.40;99.90
7461;DHT22;6757;52.258;12.840;2024-02-14T14:19:40;8.60;99.90
7461;DHT22;6757;52.258;12.840;2024-02-14T14:22:07;8.70;99.90
7461;DHT22;6757;52.258;12.840;2024-02-14T14:24:35;8.70;99.90
7461;DHT22;6757;52.258;12.840;2024-02-14T14:27:01;8.70;99.90
7461;DHT22;6757;52.258;12.840;2024-02-14T14:29:28;8.70;99.90
7461;DHT22;6757;52.258;12.840;2024-02-14T14:31:57;8.80;99.90
7461;DHT22;6757;52.258;12.840;2024-02-14T14:34:26;8.70;99.90
7461;DHT22;6757;52.258;12.840;2024-02-14T14:36:55;8.70;99.90
7461;DHT22;6757;52.258;12.840;2024-02-14T14:39:22;8.80;99.90
7461;DHT22;6757;52.258;12.840;2024-02-14T14:41:49;8.70;99.90
7461;DHT22;6757;52.258;12.840;2024-02-14T14:44:21;8.80;99.90
7461;DHT22;6757;52.258;12.840;2024-02-14T14:46:48;8.80;99.90
7461;DHT22;6757;52.258;12.840;2024-02-14T14:49:15;8.80;99.90
7461;DHT22;6757;52.258;12.840;2024-02-14T14:51:45;8.80;99.90
7461;DHT22;6757;52.258;12.840;2024-02-14T14:54:12;8.90;99.90
7461;DHT22;6757;52.258;12.840;2024-02-14T14:56:39;8.90;99.90
7461;DHT22;6757;52.258;12.840;2024-02-14T14:59:06;8.90;99.90
7461;DHT22;6757;52.258;12.840;2024-02-14T15:01:34;8.90;99.90
7461;DHT22;6757;52.258;12.840;2024-02-14T15:04:02;8.90;99.90
7461;DHT22;6757;52.258;12.840;2024-02-14T15:06:29;8.90;99.90
7461;DHT22;6757;52.258;12.840;2024-02-14T15:08:57;8.90;99.90
7461;DHT22;6757;52.258;12.840;2024-02-14T15:11:24;8.90;99.90
7461;DHT22;6757;52.258;12.840;2024-02-14T15:13:52;8.80;99.90
7461;DHT22;6757;52.258;12.840;2024-02-14T15:16:20;8.90;99.90
7461;DHT22;6757;52.258;12.840;2024-02-14T15:18:48;8.90;99.90
7461;DHT22;6757;52.258;12.840;2024-02-14T15:21:15;8.90;99.90
7461;DHT22;6757;52.258;12.840;2024-02-14T15:23:42;8.90;99.90
7461;DHT22;6757;52.258;12.840;2024-02-14T15:26:11;8.90;99.90
7461;DHT22;6757;52.258;12.840;2024-02-14T15:28:42;8.90;99.90
7461;DHT22;6757;52.258;12.840;2024-02-14T15:31:10;9.00;99.90
7461;DHT22;6757;52.258;12.840;2024-02-14T15:33:55;9.00;99.90
7461;DHT22;6757;52.258;12.840;2024-02-14T15:36:29;9.00;99.90
7461;DHT22;6757;52.258;12.840;2024-02-14T15:38:57;9.00;99.90
7461;DHT22;6757;52.258;12.840;2024-02-14T15:41:27;9.00;99.90
7461;DHT22;6757;52.258;12.840;2024-02-14T15:43:54;9.00;99.90
7461;DHT22;6757;52.258;12.840;2024-02-14T15:46:23;9.10;99.90
7461;DHT22;6757;52.258;12.840;2024-02-14T15:48:50;9.10;99.90
7461;DHT22;6757;52.258;12.840;2024-02-14T15:51:17;8.90;99.90
7461;DHT22;6757;52.258;12.840;2024-02-14T15:53:46;9.10;99.90
7461;DHT22;6757;52.258;12.840;2024-02-14T15:56:13;9.10;99.90
7461;DHT22;6757;52.258;12.840;2024-02-14T15:58:42;9.00;99.90
7461;DHT22;6757;52.258;12.840;2024-02-14T16:01:10;9.10;99.90
7461;DHT22;6757;52.258;12.840;2024-02-14T16:03:37;9.10;99.90
7461;DHT22;6757;52.258;12.840;2024-02-14T16:06:05;9.10;99.90
7461;DHT22;6757;52.258;12.840;2024-02-14T16:08:32;9.10;99.90